sensor_id;sensor_type;location;lat;lon;timestamp;P1;durP1;ratioP1;P2;durP2;ratioP2
64210;SDS011;50528;48.514;14.394;2023-05-10T00:00:07;6.00;;;5.00;;
64210;SDS011;50528;48.514;14.394;2023-05-10T00:01:41;5.90;;;4.50;;
64210;SDS011;50528;48.514;14.394;2023-05-10T00:02:14;5.80;;;4.70;;
64210;SDS011;50528;48.514;14.394;2023-05-10T00:02:47;7.20;;;5.20;;
64210;SDS011;50528;48.514;14.394;2023-05-10T00:03:21;5.50;;;4.60;;
64210;SDS011;50528;48.514;14.394;2023-05-10T00:03:55;6.30;;;5.00;;
64210;SDS011;50528;48.514;14.394;2023-05-10T00:04:28;7.10;;;5.10;;
64210;SDS011;50528;48.514;14.394;2023-05-10T00:05:01;6.20;;;4.80;;
64210;SDS011;50528;48.514;14.394;2023-05-10T00:05:35;6.30;;;5.20;;
64210;SDS011;50528;48.514;14.394;2023-05-10T00:06:08;6.50;;;5.10;;
64210;SDS011;50528;48.514;14.394;2023-05-10T00:06:41;7.70;;;5.00;;
64210;SDS011;50528;48.514;14.394;2023-05-10T00:07:15;5.90;;;5.00;;
64210;SDS011;50528;48.514;14.394;2023-05-10T00:07:50;8.90;;;4.70;;
64210;SDS011;50528;48.514;14.394;2023-05-10T00:08:23;6.40;;;5.10;;
64210;SDS011;50528;48.514;14.394;2023-05-10T00:08:56;7.30;;;5.20;;
64210;SDS011;50528;48.514;14.394;2023-05-10T00:09:30;6.80;;;5.30;;
64210;SDS011;50528;48.514;14.394;2023-05-10T00:10:03;6.70;;;5.30;;
64210;SDS011;50528;48.514;14.394;2023-05-10T00:10:40;6.70;;;5.10;;
64210;SDS011;50528;48.514;14.394;2023-05-10T00:11:17;6.00;;;5.20;;
64210;SDS011;50528;48.514;14.394;2023-05-10T00:11:54;6.00;;;5.10;;
64210;SDS011;50528;48.514;14.394;2023-05-10T00:12:27;6.60;;;5.30;;
64210;SDS011;50528;48.514;14.394;2023-05-10T00:13:01;7.80;;;5.10;;
64210;SDS011;50528;48.514;14.394;2023-05-10T00:13:34;13.70;;;6.00;;
64210;SDS011;50528;48.514;14.394;2023-05-10T00:14:07;9.30;;;5.30;;
64210;SDS011;50528;48.514;14.394;2023-05-10T00:14:41;7.50;;;5.10;;
64210;SDS011;50528;48.514;14.394;2023-05-10T00:15:14;6.30;;;5.30;;
64210;SDS011;50528;48.514;14.394;2023-05-10T00:15:47;8.30;;;5.30;;
64210;SDS011;50528;48.514;14.394;2023-05-10T00:16:20;8.90;;;5.30;;
64210;SDS011;50528;48.514;14.394;2023-05-10T00:16:54;8.00;;;5.40;;
64210;SDS011;50528;48.514;14.394;2023-05-10T00:17:27;6.60;;;5.10;;
64210;SDS011;50528;48.514;14.394;2023-05-10T00:18:01;5.30;;;4.60;;
64210;SDS011;50528;48.514;14.394;2023-05-10T00:18:34;7.00;;;5.00;;
64210;SDS011;50528;48.514;14.394;2023-05-10T00:19:08;6.10;;;4.60;;
64210;SDS011;50528;48.514;14.394;2023-05-10T00:19:41;6.40;;;5.20;;
64210;SDS011;50528;48.514;14.394;2023-05-10T00:20:14;6.00;;;5.00;;
64210;SDS011;50528;48.514;14.394;2023-05-10T00:20:48;5.70;;;4.70;;
64210;SDS011;50528;48.514;14.394;2023-05-10T00:21:22;5.70;;;4.70;;
64210;SDS011;50528;48.514;14.394;2023-05-10T00:21:55;6.20;;;4.80;;
64210;SDS011;50528;48.514;14.394;2023-05-10T00:22:29;6.30;;;5.00;;
64210;SDS011;50528;48.514;14.394;2023-05-10T00:23:02;5.70;;;4.70;;
64210;SDS011;50528;48.514;14.394;2023-05-10T00:23:35;6.60;;;4.70;;
64210;SDS011;50528;48.514;14.394;2023-05-10T00:24:09;6.20;;;4.70;;
64210;SDS011;50528;48.514;14.394;2023-05-10T00:24:42;6.90;;;4.70;;
64210;SDS011;50528;48.514;14.394;2023-05-10T00:25:15;7.80;;;4.70;;
64210;SDS011;50528;48.514;14.394;2023-05-10T00:25:49;5.30;;;4.60;;
64210;SDS011;50528;48.514;14.394;2023-05-10T00:26:22;5.60;;;5.00;;
64210;SDS011;50528;48.514;14.394;2023-05-10T00:26:56;5.80;;;5.00;;
64210;SDS011;50528;48.514;14.394;2023-05-10T00:27:29;6.20;;;4.80;;
64210;SDS011;50528;48.514;14.394;2023-05-10T00:28:03;6.20;;;4.90;;
64210;SDS011;50528;48.514;14.394;2023-05-10T00:28:37;8.20;;;4.90;;
64210;SDS011;50528;48.514;14.394;2023-05-10T00:29:10;7.00;;;4.60;;
64210;SDS011;50528;48.514;14.394;2023-05-10T00:29:43;6.80;;;5.00;;
64210;SDS011;50528;48.514;14.394;2023-05-10T00:30:17;5.40;;;4.70;;
64210;SDS011;50528;48.514;14.394;2023-05-10T00:30:51;6.30;;;4.60;;
64210;SDS011;50528;48.514;14.394;2023-05-10T00:31:24;5.70;;;5.00;;
64210;SDS011;50528;48.514;14.394;2023-05-10T00:31:57;6.10;;;5.10;;
64210;SDS011;50528;48.514;14.394;2023-05-10T00:32:31;6.40;;;4.90;;
64210;SDS011;50528;48.514;14.394;2023-05-10T00:33:04;6.90;;;5.00;;
64210;SDS011;50528;48.514;14.394;2023-05-10T00:33:38;6.10;;;4.90;;
64210;SDS011;50528;48.514;14.394;2023-05-10T00:34:11;7.80;;;5.10;;
64210;SDS011;50528;48.514;14.394;2023-05-10T00:34:44;6.50;;;5.10;;
64210;SDS011;50528;48.514;14.394;2023-05-10T00:35:18;5.60;;;4.90;;
64210;SDS011;50528;48.514;14.394;2023-05-10T00:35:51;5.40;;;4.60;;
64210;SDS011;50528;48.514;14.394;2023-05-10T00:36:25;6.00;;;4.50;;
64210;SDS011;50528;48.514;14.394;2023-05-10T00:36:58;7.70;;;4.60;;
64210;SDS011;50528;48.514;14.394;2023-05-10T00:37:32;5.70;;;4.90;;
64210;SDS011;50528;48.514;14.394;2023-05-10T00:38:05;6.50;;;5.00;;
64210;SDS011;50528;48.514;14.394;2023-05-10T00:38:39;7.00;;;4.90;;
64210;SDS011;50528;48.514;14.394;2023-05-10T00:39:13;5.90;;;4.90;;
64210;SDS011;50528;48.514;14.394;2023-05-10T00:39:47;5.50;;;4.60;;
64210;SDS011;50528;48.514;14.394;2023-05-10T00:40:21;6.20;;;5.20;;
64210;SDS011;50528;48.514;14.394;2023-05-10T00:40:57;6.00;;;4.90;;
64210;SDS011;50528;48.514;14.394;2023-05-10T00:41:33;7.30;;;4.90;;
64210;SDS011;50528;48.514;14.394;2023-05-10T00:42:07;5.80;;;5.00;;
64210;SDS011;50528;48.514;14.394;2023-05-10T00:42:40;7.50;;;5.00;;
64210;SDS011;50528;48.514;14.394;2023-05-10T00:43:13;6.70;;;4.90;;
64210;SDS011;50528;48.514;14.394;2023-05-10T00:43:47;5.80;;;4.90;;
64210;SDS011;50528;48.514;14.394;2023-05-10T00:44:21;6.10;;;4.60;;
64210;SDS011;50528;48.514;14.394;2023-05-10T00:44:55;6.20;;;4.50;;
64210;SDS011;50528;48.514;14.394;2023-05-10T00:45:30;5.30;;;4.20;;
64210;SDS011;50528;48.514;14.394;2023-05-10T00:46:05;7.40;;;4.70;;
64210;SDS011;50528;48.514;14.394;2023-05-10T00:46:39;5.50;;;4.90;;
64210;SDS011;50528;48.514;14.394;2023-05-10T00:47:13;8.30;;;4.80;;
64210;SDS011;50528;48.514;14.394;2023-05-10T00:47:47;5.30;;;4.80;;
64210;SDS011;50528;48.514;14.394;2023-05-10T00:48:20;6.30;;;4.50;;
64210;SDS011;50528;48.514;14.394;2023-05-10T00:48:54;7.00;;;4.90;;
64210;SDS011;50528;48.514;14.394;2023-05-10T00:49:28;5.40;;;4.70;;
64210;SDS011;50528;48.514;14.394;2023-05-10T00:50:02;6.60;;;5.10;;
64210;SDS011;50528;48.514;14.394;2023-05-10T00:50:38;7.30;;;5.00;;
64210;SDS011;50528;48.514;14.394;2023-05-10T00:51:13;5.80;;;5.00;;
64210;SDS011;50528;48.514;14.394;2023-05-10T00:51:46;6.30;;;4.70;;
64210;SDS011;50528;48.514;14.394;2023-05-10T00:52:20;5.50;;;4.70;;
64210;SDS011;50528;48.514;14.394;2023-05-10T00:52:53;6.60;;;4.70;;
64210;SDS011;50528;48.514;14.394;2023-05-10T00:53:26;7.10;;;4.80;;
64210;SDS011;50528;48.514;14.394;2023-05-10T00:54:00;5.70;;;4.60;;
64210;SDS011;50528;48.514;14.394;2023-05-10T00:54:33;5.60;;;4.80;;
64210;SDS011;50528;48.514;14.394;2023-05-10T00:55:07;6.80;;;4.80;;
64210;SDS011;50528;48.514;14.394;2023-05-10T00:55:42;5.50;;;4.50;;
64210;SDS011;50528;48.514;14.394;2023-05-10T00:56:16;5.40;;;4.50;;
64210;SDS011;50528;48.514;14.394;2023-05-10T00:56:49;6.60;;;4.70;;
64210;SDS011;50528;48.514;14.394;2023-05-10T00:57:23;7.40;;;5.00;;
64210;SDS011;50528;48.514;14.394;2023-05-10T00:57:56;6.60;;;5.10;;
64210;SDS011;50528;48.514;14.394;2023-05-10T00:58:30;5.60;;;4.70;;
64210;SDS011;50528;48.514;14.394;2023-05-10T00:59:04;6.20;;;4.70;;
64210;SDS011;50528;48.514;14.394;2023-05-10T00:59:37;5.50;;;4.90;;
64210;SDS011;50528;48.514;14.394;2023-05-10T01:00:10;7.00;;;5.10;;
64210;SDS011;50528;48.514;14.394;2023-05-10T01:00:50;8.10;;;4.80;;
64210;SDS011;50528;48.514;14.394;2023-05-10T01:01:31;5.90;;;4.90;;
64210;SDS011;50528;48.514;14.394;2023-05-10T01:02:05;6.70;;;4.70;;
64210;SDS011;50528;48.514;14.394;2023-05-10T01:02:39;5.70;;;5.00;;
64210;SDS011;50528;48.514;14.394;2023-05-10T01:03:14;5.60;;;4.80;;
64210;SDS011;50528;48.514;14.394;2023-05-10T01:03:48;6.00;;;5.20;;
64210;SDS011;50528;48.514;14.394;2023-05-10T01:04:21;6.30;;;5.20;;
64210;SDS011;50528;48.514;14.394;2023-05-10T01:04:58;7.40;;;5.40;;
64210;SDS011;50528;48.514;14.394;2023-05-10T01:05:33;6.70;;;5.30;;
64210;SDS011;50528;48.514;14.394;2023-05-10T01:06:07;5.50;;;4.80;;
64210;SDS011;50528;48.514;14.394;2023-05-10T01:06:43;7.90;;;4.90;;
64210;SDS011;50528;48.514;14.394;2023-05-10T01:07:16;6.10;;;4.90;;
64210;SDS011;50528;48.514;14.394;2023-05-10T01:07:49;6.80;;;5.20;;
64210;SDS011;50528;48.514;14.394;2023-05-10T01:08:23;6.90;;;5.10;;
64210;SDS011;50528;48.514;14.394;2023-05-10T01:08:58;6.50;;;5.00;;
64210;SDS011;50528;48.514;14.394;2023-05-10T01:09:32;7.00;;;5.30;;
64210;SDS011;50528;48.514;14.394;2023-05-10T01:10:06;8.40;;;5.20;;
64210;SDS011;50528;48.514;14.394;2023-05-10T01:10:41;8.30;;;5.00;;
64210;SDS011;50528;48.514;14.394;2023-05-10T01:11:15;7.00;;;5.00;;
64210;SDS011;50528;48.514;14.394;2023-05-10T01:11:49;7.30;;;5.40;;
64210;SDS011;50528;48.514;14.394;2023-05-10T01:12:23;8.10;;;4.90;;
64210;SDS011;50528;48.514;14.394;2023-05-10T01:12:56;6.20;;;5.10;;
64210;SDS011;50528;48.514;14.394;2023-05-10T01:13:38;6.70;;;4.90;;
64210;SDS011;50528;48.514;14.394;2023-05-10T01:14:15;7.40;;;5.00;;
64210;SDS011;50528;48.514;14.394;2023-05-10T01:14:52;5.50;;;4.90;;
64210;SDS011;50528;48.514;14.394;2023-05-10T01:15:26;5.20;;;4.70;;
64210;SDS011;50528;48.514;14.394;2023-05-10T01:16:00;5.50;;;4.80;;
64210;SDS011;50528;48.514;14.394;2023-05-10T01:16:37;6.20;;;5.20;;
64210;SDS011;50528;48.514;14.394;2023-05-10T01:17:11;6.50;;;5.00;;
64210;SDS011;50528;48.514;14.394;2023-05-10T01:17:46;6.10;;;4.80;;
64210;SDS011;50528;48.514;14.394;2023-05-10T01:18:21;6.00;;;5.10;;
64210;SDS011;50528;48.514;14.394;2023-05-10T01:18:55;7.90;;;5.20;;
64210;SDS011;50528;48.514;14.394;2023-05-10T01:19:29;5.70;;;4.80;;
64210;SDS011;50528;48.514;14.394;2023-05-10T01:20:04;5.90;;;5.20;;
64210;SDS011;50528;48.514;14.394;2023-05-10T01:20:43;6.90;;;5.10;;
64210;SDS011;50528;48.514;14.394;2023-05-10T01:21:38;6.40;;;5.30;;
64210;SDS011;50528;48.514;14.394;2023-05-10T01:29:53;6.60;;;4.40;;
64210;SDS011;50528;48.514;14.394;2023-05-10T01:33:11;7.30;;;4.40;;
64210;SDS011;50528;48.514;14.394;2023-05-10T01:33:54;7.30;;;4.80;;
64210;SDS011;50528;48.514;14.394;2023-05-10T01:34:38;5.40;;;4.60;;
64210;SDS011;50528;48.514;14.394;2023-05-10T01:35:37;6.50;;;4.50;;
64210;SDS011;50528;48.514;14.394;2023-05-10T01:36:32;5.40;;;4.30;;
64210;SDS011;50528;48.514;14.394;2023-05-10T01:37:15;6.10;;;4.50;;
64210;SDS011;50528;48.514;14.394;2023-05-10T01:38:01;5.80;;;4.50;;
64210;SDS011;50528;48.514;14.394;2023-05-10T01:38:47;6.60;;;4.70;;
64210;SDS011;50528;48.514;14.394;2023-05-10T01:39:25;6.40;;;4.20;;
64210;SDS011;50528;48.514;14.394;2023-05-10T01:40:13;5.20;;;4.30;;
64210;SDS011;50528;48.514;14.394;2023-05-10T01:42:02;5.80;;;4.50;;
64210;SDS011;50528;48.514;14.394;2023-05-10T01:42:44;6.00;;;4.40;;
64210;SDS011;50528;48.514;14.394;2023-05-10T01:43:26;5.90;;;4.40;;
64210;SDS011;50528;48.514;14.394;2023-05-10T01:44:13;5.30;;;4.50;;
64210;SDS011;50528;48.514;14.394;2023-05-10T01:46:02;6.70;;;4.50;;
64210;SDS011;50528;48.514;14.394;2023-05-10T01:46:43;5.90;;;4.40;;
64210;SDS011;50528;48.514;14.394;2023-05-10T01:47:29;7.20;;;4.40;;
64210;SDS011;50528;48.514;14.394;2023-05-10T01:48:09;5.50;;;4.60;;
64210;SDS011;50528;48.514;14.394;2023-05-10T01:48:47;6.20;;;4.80;;
64210;SDS011;50528;48.514;14.394;2023-05-10T01:51:16;4.90;;;4.20;;
64210;SDS011;50528;48.514;14.394;2023-05-10T01:51:56;5.70;;;4.60;;
64210;SDS011;50528;48.514;14.394;2023-05-10T01:52:38;5.30;;;4.60;;
64210;SDS011;50528;48.514;14.394;2023-05-10T01:53:17;8.20;;;4.80;;
64210;SDS011;50528;48.514;14.394;2023-05-10T01:53:54;7.10;;;5.00;;
64210;SDS011;50528;48.514;14.394;2023-05-10T01:54:33;7.50;;;5.10;;
64210;SDS011;50528;48.514;14.394;2023-05-10T01:55:09;6.20;;;5.30;;
64210;SDS011;50528;48.514;14.394;2023-05-10T01:55:49;6.00;;;5.00;;
64210;SDS011;50528;48.514;14.394;2023-05-10T01:56:26;6.00;;;4.90;;
64210;SDS011;50528;48.514;14.394;2023-05-10T01:57:03;8.40;;;5.20;;
64210;SDS011;50528;48.514;14.394;2023-05-10T01:57:39;5.70;;;5.00;;
64210;SDS011;50528;48.514;14.394;2023-05-10T01:58:19;6.70;;;5.20;;
64210;SDS011;50528;48.514;14.394;2023-05-10T01:58:56;6.10;;;5.10;;
64210;SDS011;50528;48.514;14.394;2023-05-10T01:59:33;7.30;;;5.10;;
64210;SDS011;50528;48.514;14.394;2023-05-10T02:00:09;7.90;;;5.20;;
64210;SDS011;50528;48.514;14.394;2023-05-10T02:00:47;8.40;;;5.30;;
64210;SDS011;50528;48.514;14.394;2023-05-10T02:01:24;5.60;;;5.00;;
64210;SDS011;50528;48.514;14.394;2023-05-10T02:01:59;6.30;;;5.20;;
64210;SDS011;50528;48.514;14.394;2023-05-10T02:02:38;6.30;;;5.10;;
64210;SDS011;50528;48.514;14.394;2023-05-10T02:03:15;5.70;;;5.00;;
64210;SDS011;50528;48.514;14.394;2023-05-10T02:03:51;7.50;;;5.30;;
64210;SDS011;50528;48.514;14.394;2023-05-10T02:04:26;6.70;;;5.20;;
64210;SDS011;50528;48.514;14.394;2023-05-10T02:05:01;8.40;;;6.00;;
64210;SDS011;50528;48.514;14.394;2023-05-10T02:05:38;6.80;;;5.20;;
64210;SDS011;50528;48.514;14.394;2023-05-10T02:06:13;6.30;;;5.20;;
64210;SDS011;50528;48.514;14.394;2023-05-10T02:06:49;6.40;;;5.50;;
64210;SDS011;50528;48.514;14.394;2023-05-10T02:07:24;6.20;;;5.30;;
64210;SDS011;50528;48.514;14.394;2023-05-10T02:08:01;6.40;;;5.50;;
64210;SDS011;50528;48.514;14.394;2023-05-10T02:08:38;7.70;;;5.30;;
64210;SDS011;50528;48.514;14.394;2023-05-10T02:09:14;6.50;;;5.30;;
64210;SDS011;50528;48.514;14.394;2023-05-10T02:09:48;8.70;;;5.60;;
64210;SDS011;50528;48.514;14.394;2023-05-10T02:10:23;7.20;;;5.50;;
64210;SDS011;50528;48.514;14.394;2023-05-10T02:10:56;6.70;;;5.50;;
64210;SDS011;50528;48.514;14.394;2023-05-10T02:11:33;6.90;;;5.40;;
64210;SDS011;50528;48.514;14.394;2023-05-10T02:12:06;6.90;;;5.00;;
64210;SDS011;50528;48.514;14.394;2023-05-10T02:12:41;7.20;;;5.20;;
64210;SDS011;50528;48.514;14.394;2023-05-10T02:13:18;7.70;;;5.30;;
64210;SDS011;50528;48.514;14.394;2023-05-10T02:13:52;5.50;;;4.80;;
64210;SDS011;50528;48.514;14.394;2023-05-10T02:14:32;8.00;;;5.40;;
64210;SDS011;50528;48.514;14.394;2023-05-10T02:15:07;6.30;;;5.30;;
64210;SDS011;50528;48.514;14.394;2023-05-10T02:15:43;6.80;;;5.50;;
64210;SDS011;50528;48.514;14.394;2023-05-10T02:16:20;7.60;;;5.70;;
64210;SDS011;50528;48.514;14.394;2023-05-10T02:16:58;6.70;;;5.40;;
64210;SDS011;50528;48.514;14.394;2023-05-10T02:17:35;7.30;;;5.30;;
64210;SDS011;50528;48.514;14.394;2023-05-10T02:18:10;6.50;;;5.40;;
64210;SDS011;50528;48.514;14.394;2023-05-10T02:18:45;6.60;;;5.10;;
64210;SDS011;50528;48.514;14.394;2023-05-10T02:19:21;6.20;;;5.20;;
64210;SDS011;50528;48.514;14.394;2023-05-10T02:19:55;8.40;;;4.90;;
64210;SDS011;50528;48.514;14.394;2023-05-10T02:20:30;6.90;;;4.90;;
64210;SDS011;50528;48.514;14.394;2023-05-10T02:21:05;6.00;;;4.60;;
64210;SDS011;50528;48.514;14.394;2023-05-10T02:21:39;6.50;;;4.90;;
64210;SDS011;50528;48.514;14.394;2023-05-10T02:22:14;5.90;;;4.80;;
64210;SDS011;50528;48.514;14.394;2023-05-10T02:22:49;5.50;;;4.50;;
64210;SDS011;50528;48.514;14.394;2023-05-10T02:23:24;6.10;;;4.60;;
64210;SDS011;50528;48.514;14.394;2023-05-10T02:23:59;8.60;;;5.10;;
64210;SDS011;50528;48.514;14.394;2023-05-10T02:24:36;5.80;;;4.70;;
64210;SDS011;50528;48.514;14.394;2023-05-10T02:25:11;6.10;;;5.10;;
64210;SDS011;50528;48.514;14.394;2023-05-10T02:25:47;5.60;;;5.00;;
64210;SDS011;50528;48.514;14.394;2023-05-10T02:26:21;7.00;;;4.80;;
64210;SDS011;50528;48.514;14.394;2023-05-10T02:26:58;6.30;;;5.00;;
64210;SDS011;50528;48.514;14.394;2023-05-10T02:27:33;6.40;;;4.60;;
64210;SDS011;50528;48.514;14.394;2023-05-10T02:28:08;6.10;;;5.30;;
64210;SDS011;50528;48.514;14.394;2023-05-10T02:28:45;6.00;;;5.10;;
64210;SDS011;50528;48.514;14.394;2023-05-10T02:29:19;6.30;;;4.90;;
64210;SDS011;50528;48.514;14.394;2023-05-10T02:29:53;5.80;;;4.90;;
64210;SDS011;50528;48.514;14.394;2023-05-10T02:30:27;5.90;;;5.00;;
64210;SDS011;50528;48.514;14.394;2023-05-10T02:31:03;7.50;;;4.80;;
64210;SDS011;50528;48.514;14.394;2023-05-10T02:31:38;5.90;;;4.40;;
64210;SDS011;50528;48.514;14.394;2023-05-10T02:32:11;8.10;;;4.80;;
64210;SDS011;50528;48.514;14.394;2023-05-10T02:32:46;6.00;;;4.50;;
64210;SDS011;50528;48.514;14.394;2023-05-10T02:33:22;8.20;;;4.60;;
64210;SDS011;50528;48.514;14.394;2023-05-10T02:33:57;6.50;;;4.60;;
64210;SDS011;50528;48.514;14.394;2023-05-10T02:34:33;6.40;;;5.20;;
64210;SDS011;50528;48.514;14.394;2023-05-10T02:35:07;6.60;;;5.10;;
64210;SDS011;50528;48.514;14.394;2023-05-10T02:35:42;6.20;;;5.00;;
64210;SDS011;50528;48.514;14.394;2023-05-10T02:36:16;6.10;;;5.00;;
64210;SDS011;50528;48.514;14.394;2023-05-10T02:36:52;7.60;;;5.00;;
64210;SDS011;50528;48.514;14.394;2023-05-10T02:37:26;6.20;;;5.10;;
64210;SDS011;50528;48.514;14.394;2023-05-10T02:38:00;6.70;;;5.30;;
64210;SDS011;50528;48.514;14.394;2023-05-10T02:38:35;6.00;;;5.10;;
64210;SDS011;50528;48.514;14.394;2023-05-10T02:39:09;9.30;;;5.10;;
64210;SDS011;50528;48.514;14.394;2023-05-10T02:39:49;7.40;;;5.30;;
64210;SDS011;50528;48.514;14.394;2023-05-10T02:40:24;8.10;;;5.40;;
64210;SDS011;50528;48.514;14.394;2023-05-10T02:41:01;6.90;;;5.20;;
64210;SDS011;50528;48.514;14.394;2023-05-10T02:41:37;7.00;;;5.40;;
64210;SDS011;50528;48.514;14.394;2023-05-10T02:42:15;6.40;;;5.00;;
64210;SDS011;50528;48.514;14.394;2023-05-10T02:42:50;9.00;;;5.10;;
64210;SDS011;50528;48.514;14.394;2023-05-10T02:43:27;5.90;;;5.00;;
64210;SDS011;50528;48.514;14.394;2023-05-10T02:44:03;6.60;;;5.30;;
64210;SDS011;50528;48.514;14.394;2023-05-10T02:44:41;7.40;;;5.40;;
64210;SDS011;50528;48.514;14.394;2023-05-10T02:45:17;7.10;;;5.30;;
64210;SDS011;50528;48.514;14.394;2023-05-10T02:45:53;13.80;;;5.10;;
64210;SDS011;50528;48.514;14.394;2023-05-10T02:46:27;6.40;;;5.00;;
64210;SDS011;50528;48.514;14.394;2023-05-10T02:47:01;7.30;;;5.20;;
64210;SDS011;50528;48.514;14.394;2023-05-10T02:47:34;5.70;;;4.80;;
64210;SDS011;50528;48.514;14.394;2023-05-10T02:48:08;7.20;;;5.00;;
64210;SDS011;50528;48.514;14.394;2023-05-10T02:48:41;6.30;;;4.90;;
64210;SDS011;50528;48.514;14.394;2023-05-10T02:49:15;6.20;;;5.00;;
64210;SDS011;50528;48.514;14.394;2023-05-10T02:49:49;6.00;;;4.80;;
64210;SDS011;50528;48.514;14.394;2023-05-10T02:50:22;7.10;;;5.50;;
64210;SDS011;50528;48.514;14.394;2023-05-10T02:51:00;5.50;;;4.50;;
64210;SDS011;50528;48.514;14.394;2023-05-10T02:51:40;5.70;;;4.80;;
64210;SDS011;50528;48.514;14.394;2023-05-10T02:52:19;7.10;;;4.50;;
64210;SDS011;50528;48.514;14.394;2023-05-10T02:52:59;5.50;;;4.70;;
64210;SDS011;50528;48.514;14.394;2023-05-10T02:53:35;5.50;;;4.70;;
64210;SDS011;50528;48.514;14.394;2023-05-10T02:54:12;6.10;;;4.70;;
64210;SDS011;50528;48.514;14.394;2023-05-10T02:54:52;7.60;;;4.90;;
64210;SDS011;50528;48.514;14.394;2023-05-10T02:55:31;5.60;;;4.70;;
64210;SDS011;50528;48.514;14.394;2023-05-10T02:56:11;7.00;;;4.80;;
64210;SDS011;50528;48.514;14.394;2023-05-10T02:56:50;5.40;;;4.60;;
64210;SDS011;50528;48.514;14.394;2023-05-10T02:57:27;5.90;;;4.50;;
64210;SDS011;50528;48.514;14.394;2023-05-10T02:58:04;5.60;;;4.80;;
64210;SDS011;50528;48.514;14.394;2023-05-10T02:58:38;5.90;;;4.70;;
64210;SDS011;50528;48.514;14.394;2023-05-10T02:59:11;6.20;;;4.90;;
64210;SDS011;50528;48.514;14.394;2023-05-10T02:59:45;6.90;;;5.00;;
64210;SDS011;50528;48.514;14.394;2023-05-10T03:00:18;5.60;;;4.80;;
64210;SDS011;50528;48.514;14.394;2023-05-10T03:00:52;6.20;;;5.30;;
64210;SDS011;50528;48.514;14.394;2023-05-10T03:01:25;6.20;;;5.30;;
64210;SDS011;50528;48.514;14.394;2023-05-10T03:01:59;7.20;;;5.50;;
64210;SDS011;50528;48.514;14.394;2023-05-10T03:02:33;6.60;;;5.40;;
64210;SDS011;50528;48.514;14.394;2023-05-10T03:03:07;7.60;;;5.40;;
64210;SDS011;50528;48.514;14.394;2023-05-10T03:03:41;11.30;;;5.80;;
64210;SDS011;50528;48.514;14.394;2023-05-10T03:04:14;8.30;;;5.70;;
64210;SDS011;50528;48.514;14.394;2023-05-10T03:04:48;7.80;;;5.30;;
64210;SDS011;50528;48.514;14.394;2023-05-10T03:05:21;7.10;;;5.50;;
64210;SDS011;50528;48.514;14.394;2023-05-10T03:05:54;7.20;;;5.80;;
64210;SDS011;50528;48.514;14.394;2023-05-10T03:06:29;6.40;;;5.30;;
64210;SDS011;50528;48.514;14.394;2023-05-10T03:07:02;6.70;;;5.10;;
64210;SDS011;50528;48.514;14.394;2023-05-10T03:07:36;7.20;;;5.40;;
64210;SDS011;50528;48.514;14.394;2023-05-10T03:08:10;7.20;;;4.80;;
64210;SDS011;50528;48.514;14.394;2023-05-10T03:08:44;5.70;;;5.10;;
64210;SDS011;50528;48.514;14.394;2023-05-10T03:09:18;6.20;;;5.10;;
64210;SDS011;50528;48.514;14.394;2023-05-10T03:09:52;6.30;;;5.20;;
64210;SDS011;50528;48.514;14.394;2023-05-10T03:10:27;6.00;;;5.10;;
64210;SDS011;50528;48.514;14.394;2023-05-10T03:11:16;6.70;;;5.20;;
64210;SDS011;50528;48.514;14.394;2023-05-10T03:13:10;6.40;;;5.30;;
64210;SDS011;50528;48.514;14.394;2023-05-10T03:13:56;6.30;;;4.50;;
64210;SDS011;50528;48.514;14.394;2023-05-10T03:16:45;6.80;;;5.40;;
64210;SDS011;50528;48.514;14.394;2023-05-10T03:17:30;7.80;;;5.10;;
64210;SDS011;50528;48.514;14.394;2023-05-10T03:18:15;8.20;;;5.30;;
64210;SDS011;50528;48.514;14.394;2023-05-10T03:19:01;7.60;;;5.20;;
64210;SDS011;50528;48.514;14.394;2023-05-10T03:19:53;7.60;;;5.70;;
64210;SDS011;50528;48.514;14.394;2023-05-10T03:20:39;6.80;;;5.20;;
64210;SDS011;50528;48.514;14.394;2023-05-10T03:21:17;7.00;;;5.30;;
64210;SDS011;50528;48.514;14.394;2023-05-10T03:21:52;7.00;;;5.40;;
64210;SDS011;50528;48.514;14.394;2023-05-10T03:22:49;6.50;;;5.50;;
64210;SDS011;50528;48.514;14.394;2023-05-10T03:24:08;6.50;;;5.40;;
64210;SDS011;50528;48.514;14.394;2023-05-10T03:24:45;7.30;;;5.90;;
64210;SDS011;50528;48.514;14.394;2023-05-10T03:25:20;6.70;;;5.70;;
64210;SDS011;50528;48.514;14.394;2023-05-10T03:25:56;6.20;;;5.40;;
64210;SDS011;50528;48.514;14.394;2023-05-10T03:26:29;7.90;;;5.50;;
64210;SDS011;50528;48.514;14.394;2023-05-10T03:27:11;6.60;;;5.30;;
64210;SDS011;50528;48.514;14.394;2023-05-10T03:27:47;6.60;;;5.20;;
64210;SDS011;50528;48.514;14.394;2023-05-10T03:28:21;7.10;;;5.50;;
64210;SDS011;50528;48.514;14.394;2023-05-10T03:28:57;6.50;;;5.30;;
64210;SDS011;50528;48.514;14.394;2023-05-10T03:29:32;7.10;;;5.10;;
64210;SDS011;50528;48.514;14.394;2023-05-10T03:30:08;6.80;;;5.30;;
64210;SDS011;50528;48.514;14.394;2023-05-10T03:30:43;6.00;;;5.10;;
64210;SDS011;50528;48.514;14.394;2023-05-10T03:31:18;5.70;;;5.10;;
64210;SDS011;50528;48.514;14.394;2023-05-10T03:31:51;7.50;;;5.20;;
64210;SDS011;50528;48.514;14.394;2023-05-10T03:32:25;7.10;;;4.90;;
64210;SDS011;50528;48.514;14.394;2023-05-10T03:33:04;6.30;;;5.60;;
64210;SDS011;50528;48.514;14.394;2023-05-10T03:33:46;6.40;;;5.40;;
64210;SDS011;50528;48.514;14.394;2023-05-10T03:34:25;6.40;;;5.30;;
64210;SDS011;50528;48.514;14.394;2023-05-10T03:34:58;7.00;;;5.20;;
64210;SDS011;50528;48.514;14.394;2023-05-10T03:35:31;6.70;;;5.40;;
64210;SDS011;50528;48.514;14.394;2023-05-10T03:36:05;7.80;;;5.20;;
64210;SDS011;50528;48.514;14.394;2023-05-10T03:36:39;6.40;;;5.00;;
64210;SDS011;50528;48.514;14.394;2023-05-10T03:37:12;6.40;;;5.10;;
64210;SDS011;50528;48.514;14.394;2023-05-10T03:37:46;6.70;;;5.50;;
64210;SDS011;50528;48.514;14.394;2023-05-10T03:38:20;5.90;;;4.90;;
64210;SDS011;50528;48.514;14.394;2023-05-10T03:38:53;6.10;;;5.20;;
64210;SDS011;50528;48.514;14.394;2023-05-10T03:39:27;7.60;;;5.50;;
64210;SDS011;50528;48.514;14.394;2023-05-10T03:40:03;6.60;;;5.50;;
64210;SDS011;50528;48.514;14.394;2023-05-10T03:40:38;6.30;;;5.20;;
64210;SDS011;50528;48.514;14.394;2023-05-10T03:41:12;6.10;;;5.30;;
64210;SDS011;50528;48.514;14.394;2023-05-10T03:41:46;6.90;;;5.50;;
64210;SDS011;50528;48.514;14.394;2023-05-10T03:42:19;5.80;;;5.20;;
64210;SDS011;50528;48.514;14.394;2023-05-10T03:42:52;5.90;;;5.00;;
64210;SDS011;50528;48.514;14.394;2023-05-10T03:43:25;7.60;;;5.00;;
64210;SDS011;50528;48.514;14.394;2023-05-10T03:43:58;5.70;;;4.70;;
64210;SDS011;50528;48.514;14.394;2023-05-10T03:44:31;6.10;;;5.00;;
64210;SDS011;50528;48.514;14.394;2023-05-10T03:45:06;6.10;;;4.50;;
64210;SDS011;50528;48.514;14.394;2023-05-10T03:45:40;6.00;;;5.00;;
64210;SDS011;50528;48.514;14.394;2023-05-10T03:46:13;7.30;;;5.30;;
64210;SDS011;50528;48.514;14.394;2023-05-10T03:46:46;5.90;;;4.70;;
64210;SDS011;50528;48.514;14.394;2023-05-10T03:47:20;5.70;;;5.10;;
64210;SDS011;50528;48.514;14.394;2023-05-10T03:47:53;7.20;;;5.00;;
64210;SDS011;50528;48.514;14.394;2023-05-10T03:48:27;7.40;;;4.90;;
64210;SDS011;50528;48.514;14.394;2023-05-10T03:49:00;6.10;;;5.00;;
64210;SDS011;50528;48.514;14.394;2023-05-10T03:49:33;8.30;;;4.80;;
64210;SDS011;50528;48.514;14.394;2023-05-10T03:50:07;7.40;;;5.50;;
64210;SDS011;50528;48.514;14.394;2023-05-10T03:50:40;7.70;;;5.50;;
64210;SDS011;50528;48.514;14.394;2023-05-10T03:51:14;7.70;;;5.60;;